Time;durP1;ratioP1;P1;durP2;ratioP2;P2;SDS_P1;SDS_P2;PMS_P1;PMS_P2;Temp;Humidity;BMP_temperature;BMP_pressure;BME280_temperature;BME280_humidity;BME280_pressure;Samples;Min_cycle;Max_cycle;Signal;HPM_P1;HPM_P2
2022/02/12 00:01:05;;;;;;;1999.90;436.07;;;1.40;99.90;;;;;;6090370;23;20475;-81
2022/02/12 00:03:37;;;;;;;1522.20;236.97;;;1.50;99.90;;;;;;6090005;23;20424;-80
2022/02/12 00:06:06;;;;;;;1611.50;236.47;;;1.50;99.90;;;;;;6090965;23;20508;-81
2022/02/12 00:08:34;;;;;;;1999.90;370.50;;;1.50;99.90;;;;;;6090944;23;20513;-81
2022/02/12 00:11:08;;;;;;;1999.90;442.23;;;1.50;99.90;;;;;;6089802;23;20470;-81
2022/02/12 00:13:46;;;;;;;1374.57;272.83;;;1.60;99.90;;;;;;6125855;23;20401;-81
2022/02/12 00:16:17;;;;;;;1993.73;283.23;;;1.60;99.90;;;;;;6116804;23;20432;-80
2022/02/12 00:18:47;;;;;;;1940.73;271.83;;;1.60;99.90;;;;;;6092197;23;20762;-81
2022/02/12 00:21:18;;;;;;;1616.13;237.33;;;1.60;99.90;;;;;;6090800;23;20438;-81
2022/02/12 00:23:56;;;;;;;1297.07;205.37;;;1.70;99.90;;;;;;6117232;23;20402;-80
2022/02/12 00:26:29;;;;;;;1600.07;212.63;;;1.70;99.90;;;;;;6091471;23;20446;-80
2022/02/12 00:28:58;;;;;;;1807.37;254.70;;;1.70;99.90;;;;;;6115925;23;20447;-81
2022/02/12 00:31:26;;;;;;;1999.90;282.10;;;1.70;99.90;;;;;;6091189;23;20449;-81
2022/02/12 00:33:55;;;;;;;1865.07;255.07;;;1.80;99.90;;;;;;6089853;23;20514;-80
2022/02/12 00:36:24;;;;;;;1380.47;271.10;;;1.80;99.90;;;;;;6090112;23;20415;-80
2022/02/12 00:38:55;;;;;;;1858.73;275.13;;;1.80;99.90;;;;;;6090323;23;20402;-81
2022/02/12 00:41:57;;;;;;;1742.93;258.33;;;1.80;99.90;;;;;;6103055;23;20443;-81
2022/02/12 00:44:29;;;;;;;1872.87;222.17;;;1.90;99.90;;;;;;6090712;23;20448;-81
2022/02/12 00:47:08;;;;;;;1518.53;234.73;;;1.90;99.90;;;;;;6116157;23;20458;-81
2022/02/12 00:50:08;;;;;;;1890.43;282.87;;;1.90;99.90;;;;;;6090774;23;20434;-80
2022/02/12 00:52:44;;;;;;;1145.90;185.47;;;1.90;99.90;;;;;;6113410;23;20426;-81
2022/02/12 00:55:13;;;;;;;1414.10;251.87;;;1.90;99.90;;;;;;6090813;23;20422;-79
2022/02/12 00:57:48;;;;;;;1653.20;245.10;;;1.90;99.90;;;;;;6091267;23;20479;-81
2022/02/12 01:00:17;;;;;;;1560.30;241.30;;;1.90;99.90;;;;;;6090676;23;20435;-81
2022/02/12 01:02:47;;;;;;;1718.47;246.87;;;1.90;99.90;;;;;;6090876;23;20502;-81
2022/02/12 01:05:15;;;;;;;1608.03;244.50;;;1.90;99.90;;;;;;6091220;23;20422;-80
2022/02/12 01:07:47;;;;;;;1938.87;264.50;;;1.90;99.90;;;;;;6090165;23;20462;-81
2022/02/12 01:10:15;;;;;;;1999.90;284.77;;;1.90;99.90;;;;;;6090662;23;20439;-80
2022/02/12 01:12:43;;;;;;;1999.90;357.03;;;1.90;99.90;;;;;;6091554;23;20422;-81
2022/02/12 01:15:15;;;;;;;1961.83;308.10;;;1.90;99.90;;;;;;6090968;23;20418;-79
2022/02/12 01:17:44;;;;;;;1765.53;218.00;;;1.90;99.90;;;;;;6116178;23;20419;-81
2022/02/12 01:20:27;;;;;;;1663.13;277.10;;;1.80;99.90;;;;;;6116576;23;20462;-80
2022/02/12 01:23:02;;;;;;;1427.63;202.17;;;1.80;99.90;;;;;;6091238;23;20948;-81
2022/02/12 01:25:31;;;;;;;1541.57;233.50;;;1.80;99.90;;;;;;6090236;23;20477;-81
2022/02/12 01:28:01;;;;;;;1635.33;251.60;;;1.80;99.90;;;;;;6091107;23;20418;-80
2022/02/12 01:30:35;;;;;;;1106.60;185.70;;;1.80;99.90;;;;;;6089958;23;20457;-80
2022/02/12 01:33:13;;;;;;;1380.80;193.33;;;1.70;99.90;;;;;;6091298;23;20416;-79
2022/02/12 01:35:44;;;;;;;924.97;114.33;;;1.70;99.90;;;;;;6115606;23;20437;-80
2022/02/12 01:38:12;;;;;;;1742.70;253.57;;;1.70;99.90;;;;;;6125575;23;20399;-80
2022/02/12 01:40:41;;;;;;;1298.13;175.50;;;1.60;99.90;;;;;;6089956;23;20431;-80
2022/02/12 01:43:12;;;;;;;1496.60;183.40;;;1.60;99.90;;;;;;6090172;23;20446;-80
2022/02/12 01:45:42;;;;;;;1981.10;325.17;;;1.70;99.90;;;;;;6092393;23;20411;-80
2022/02/12 01:48:13;;;;;;;1780.07;301.47;;;1.60;99.90;;;;;;6091396;23;20410;-80
2022/02/12 01:50:45;;;;;;;1832.13;197.33;;;1.60;99.90;;;;;;6089006;23;20450;-80
2022/02/12 01:53:14;;;;;;;1621.07;213.00;;;1.60;99.90;;;;;;6089141;23;20413;-80
2022/02/12 01:55:42;;;;;;;1877.33;279.20;;;1.60;99.90;;;;;;6090015;23;20430;-80
2022/02/12 01:58:14;;;;;;;1999.90;367.53;;;1.50;99.90;;;;;;6089189;23;20478;-81
2022/02/12 02:00:46;;;;;;;1999.90;367.53;;;1.60;99.90;;;;;;6089006;23;20443;-80
2022/02/12 02:03:15;;;;;;;1930.83;325.20;;;1.50;99.90;;;;;;6089150;23;20442;-80
2022/02/12 02:05:44;;;;;;;1622.63;292.47;;;1.50;99.90;;;;;;6089636;23;20423;-79
2022/02/12 02:08:13;;;;;;;1201.57;226.30;;;1.50;99.90;;;;;;6088602;23;20502;-80
2022/02/12 02:10:41;;;;;;;1966.93;350.90;;;1.50;99.90;;;;;;6090012;23;20448;-80
2022/02/12 02:13:23;;;;;;;1641.47;250.33;;;1.50;99.90;;;;;;6088807;23;20472;-80
2022/02/12 02:15:57;;;;;;;1203.00;198.70;;;1.50;99.90;;;;;;6115195;23;20806;-80
2022/02/12 02:18:27;;;;;;;1545.67;258.60;;;1.40;99.90;;;;;;6089129;23;20504;-80
2022/02/12 02:20:58;;;;;;;1453.23;221.07;;;1.40;99.90;;;;;;6114579;23;20422;-81
2022/02/12 02:23:28;;;;;;;1646.87;153.53;;;1.40;99.90;;;;;;6089102;23;20453;-80
2022/02/12 02:25:57;;;;;;;1108.67;191.13;;;1.40;99.90;;;;;;6089762;23;20496;-80
2022/02/12 02:28:26;;;;;;;1106.93;179.33;;;1.30;99.90;;;;;;6089081;23;20434;-80
2022/02/12 02:30:57;;;;;;;1038.30;180.03;;;1.30;99.90;;;;;;6088784;23;20450;-80
2022/02/12 02:33:34;;;;;;;1999.90;297.27;;;1.30;99.90;;;;;;6088966;23;20413;-80
2022/02/12 02:36:05;;;;;;;938.57;145.63;;;1.30;99.90;;;;;;6088464;23;20406;-80
2022/02/12 02:38:41;;;;;;;1070.90;106.87;;;1.20;99.90;;;;;;6123156;23;20386;-80
2022/02/12 02:41:09;;;;;;;1203.40;207.97;;;1.20;99.90;;;;;;6088443;23;20437;-80
2022/02/12 02:43:39;;;;;;;1736.57;277.03;;;1.20;99.90;;;;;;6087657;23;20453;-80
2022/02/12 02:46:15;;;;;;;1244.10;204.73;;;1.20;99.90;;;;;;6086912;23;20461;-80
2022/02/12 02:48:47;;;;;;;821.77;97.83;;;1.20;99.90;;;;;;6086240;23;20418;-79
2022/02/12 02:56:54;;;;;;;1237.63;189.50;;;1.10;99.90;;;;;;6085901;23;20413;-80
2022/02/12 02:59:22;;;;;;;1111.73;143.60;;;1.00;99.90;;;;;;6084862;23;20457;-80
2022/02/12 03:01:53;;;;;;;1999.90;397.53;;;1.00;99.90;;;;;;6084154;23;20727;-80
2022/02/12 03:04:24;;;;;;;1153.70;109.17;;;1.00;99.90;;;;;;6083345;23;20453;-80
2022/02/12 03:06:53;;;;;;;1060.17;106.60;;;0.90;99.90;;;;;;6082344;23;20881;-79
2022/02/12 03:09:23;;;;;;;1364.23;189.43;;;0.90;99.90;;;;;;6107773;23;20449;-79
2022/02/12 03:11:53;;;;;;;1773.77;239.43;;;0.90;99.90;;;;;;6082161;23;20477;-80
2022/02/12 03:14:22;;;;;;;1053.40;187.50;;;0.90;99.90;;;;;;6081524;23;20418;-79
2022/02/12 03:16:50;;;;;;;1999.90;419.57;;;0.80;99.90;;;;;;6081998;23;20422;-80
2022/02/12 03:19:18;;;;;;;1492.07;138.13;;;0.90;99.90;;;;;;6082193;23;20430;-80
2022/02/12 03:22:04;;;;;;;885.10;142.47;;;0.80;99.90;;;;;;6083234;23;20414;-80
2022/02/12 03:24:34;;;;;;;1268.03;192.00;;;0.80;99.90;;;;;;6082856;23;20418;-80
2022/02/12 03:27:02;;;;;;;1027.33;112.77;;;0.80;99.90;;;;;;6081565;23;20423;-78
2022/02/12 03:29:31;;;;;;;1999.90;407.40;;;0.70;99.90;;;;;;6107463;23;20425;-79
2022/02/12 03:31:59;;;;;;;1103.57;134.33;;;0.70;99.90;;;;;;6081226;23;20443;-79
2022/02/12 03:34:28;;;;;;;1982.47;409.87;;;0.70;99.90;;;;;;6082669;23;20444;-79
2022/02/12 03:36:56;;;;;;;1222.73;192.07;;;0.70;99.90;;;;;;6081301;23;20498;-80
2022/02/12 03:39:24;;;;;;;1519.47;125.37;;;0.60;99.90;;;;;;6081058;23;20460;-79
2022/02/12 03:41:56;;;;;;;1607.67;297.63;;;0.60;99.90;;;;;;6082045;23;20494;-79
2022/02/12 03:44:25;;;;;;;1297.50;118.20;;;0.60;99.90;;;;;;6082274;23;20410;-80
2022/02/12 03:46:53;;;;;;;1130.57;111.70;;;0.60;99.90;;;;;;6106668;23;20410;-80
2022/02/12 03:49:21;;;;;;;1069.60;132.13;;;0.60;99.90;;;;;;6081400;23;20441;-80
2022/02/12 03:51:50;;;;;;;1999.90;468.17;;;0.60;99.90;;;;;;6081666;23;20433;-79
2022/02/12 03:54:18;;;;;;;940.20;99.63;;;0.60;99.90;;;;;;6081409;23;20903;-80
2022/02/12 03:56:52;;;;;;;1572.07;257.30;;;0.50;99.90;;;;;;6081853;23;20437;-80
2022/02/12 03:59:22;;;;;;;1070.40;113.70;;;0.50;99.90;;;;;;6080444;23;20509;-79
2022/02/12 04:01:50;;;;;;;813.40;142.97;;;0.50;99.90;;;;;;6081853;23;20795;-79
2022/02/12 04:04:24;;;;;;;485.63;99.97;;;0.50;99.90;;;;;;6080523;23;20460;-79
2022/02/12 04:06:52;;;;;;;1072.30;175.33;;;0.50;99.90;;;;;;6079692;23;20518;-79
2022/02/12 04:09:21;;;;;;;1232.90;115.40;;;0.40;99.90;;;;;;6079878;23;20442;-80
2022/02/12 04:11:50;;;;;;;1121.13;198.87;;;0.40;99.90;;;;;;6079610;23;20430;-79
2022/02/12 04:14:19;;;;;;;939.00;87.93;;;0.40;99.90;;;;;;6079819;23;20418;-79
2022/02/12 04:16:48;;;;;;;1999.90;553.30;;;0.40;99.90;;;;;;6078715;23;20418;-79
2022/02/12 04:19:17;;;;;;;764.73;117.07;;;0.40;99.90;;;;;;6113803;23;20437;-79
2022/02/12 04:21:45;;;;;;;1078.03;158.90;;;0.40;99.90;;;;;;6077400;23;20429;-79
2022/02/12 04:24:13;;;;;;;1118.33;118.90;;;0.40;99.90;;;;;;6077137;23;20409;-79
2022/02/12 04:26:43;;;;;;;1129.37;124.03;;;0.30;99.90;;;;;;6112127;23;20481;-79
2022/02/12 04:29:12;;;;;;;1604.43;240.40;;;0.30;99.90;;;;;;6111396;23;20430;-79
2022/02/12 04:31:40;;;;;;;783.80;156.63;;;0.40;99.90;;;;;;6075127;23;20485;-79
2022/02/12 04:34:12;;;;;;;702.07;141.83;;;0.30;99.90;;;;;;6101406;23;20438;-79
2022/02/12 04:36:43;;;;;;;1597.57;139.50;;;0.30;99.90;;;;;;6075148;23;20501;-79
2022/02/12 04:39:11;;;;;;;1113.57;112.47;;;0.20;99.90;;;;;;6074713;23;20422;-79
2022/02/12 04:41:39;;;;;;;1130.13;180.90;;;0.20;99.90;;;;;;6074230;23;20910;-78
2022/02/12 04:44:12;;;;;;;857.60;93.73;;;0.20;99.90;;;;;;6073687;23;20969;-79
2022/02/12 04:46:42;;;;;;;1999.90;443.27;;;0.20;99.90;;;;;;6073851;23;20418;-79
2022/02/12 04:49:13;;;;;;;723.80;96.00;;;0.20;99.90;;;;;;6073528;23;20445;-79
2022/02/12 04:51:41;;;;;;;1999.90;282.73;;;0.20;99.90;;;;;;6073886;23;20443;-79
2022/02/12 04:54:09;;;;;;;1405.50;127.73;;;0.10;99.90;;;;;;6108830;23;20426;-79
2022/02/12 04:56:38;;;;;;;1088.53;114.50;;;0.10;99.90;;;;;;6073514;23;20422;-79
2022/02/12 04:59:09;;;;;;;1066.87;109.40;;;0.10;99.90;;;;;;6073567;23;20446;-79
2022/02/12 05:01:37;;;;;;;1264.50;150.63;;;0.10;99.90;;;;;;6073534;23;20991;-79
2022/02/12 05:04:11;;;;;;;1099.93;144.63;;;0.10;99.90;;;;;;6073425;23;20434;-79
2022/02/12 05:06:39;;;;;;;1380.83;106.10;;;0.10;99.90;;;;;;6072865;23;20456;-79
2022/02/12 05:09:07;;;;;;;1999.90;408.63;;;0.10;99.90;;;;;;6072937;23;20428;-78
2022/02/12 05:11:37;;;;;;;875.47;141.13;;;0.10;99.90;;;;;;6108341;23;20451;-78
2022/02/12 05:14:05;;;;;;;1273.60;117.73;;;0.10;99.90;;;;;;6072974;23;20530;-80
2022/02/12 05:16:33;;;;;;;1573.30;228.60;;;0.00;99.90;;;;;;6072989;23;20509;-78
2022/02/12 05:19:02;;;;;;;1168.87;261.20;;;0.00;99.90;;;;;;6072986;23;20902;-79
2022/02/12 05:21:32;;;;;;;859.90;150.73;;;0.00;99.90;;;;;;6072710;23;20481;-79
2022/02/12 05:24:01;;;;;;;1725.50;224.07;;;0.00;99.90;;;;;;6072714;23;20438;-78
2022/02/12 05:26:30;;;;;;;839.73;170.77;;;0.00;99.90;;;;;;6072654;23;20430;-79
2022/02/12 05:28:59;;;;;;;776.67;143.97;;;0.00;99.90;;;;;;6072740;23;20415;-79
2022/02/12 05:31:27;;;;;;;840.00;150.47;;;-0.10;99.90;;;;;;6072645;23;20458;-79
2022/02/12 05:33:55;;;;;;;1039.90;134.03;;;-0.10;99.90;;;;;;6072551;23;20525;-79
2022/02/12 05:36:24;;;;;;;472.93;93.03;;;-0.10;99.90;;;;;;6072589;23;20473;-78
2022/02/12 05:38:55;;;;;;;1239.40;132.57;;;-0.10;99.90;;;;;;6072505;23;20454;-78
2022/02/12 05:41:27;;;;;;;491.53;101.03;;;-0.10;99.90;;;;;;6072245;23;20456;-78
2022/02/12 05:43:55;;;;;;;1225.43;198.63;;;-0.10;99.90;;;;;;6097959;23;20446;-78
2022/02/12 05:46:24;;;;;;;1298.43;122.10;;;-0.10;99.90;;;;;;6072396;23;20418;-78
2022/02/12 05:48:52;;;;;;;502.23;101.77;;;-0.20;99.90;;;;;;6072338;23;20426;-78
2022/02/12 05:51:24;;;;;;;1187.80;187.30;;;-0.20;99.90;;;;;;6072103;23;20952;-78
2022/02/12 05:53:59;;;;;;;1246.13;122.93;;;-0.20;99.90;;;;;;6072380;23;20426;-78
2022/02/12 05:56:29;;;;;;;1901.87;251.33;;;-0.20;99.90;;;;;;6072341;23;20752;-78
2022/02/12 05:58:58;;;;;;;965.23;88.70;;;-0.20;99.90;;;;;;6072259;23;20481;-79
2022/02/12 06:01:27;;;;;;;1100.70;111.87;;;-0.20;99.90;;;;;;6071919;23;20438;-78
2022/02/12 06:03:55;;;;;;;920.37;152.83;;;-0.20;99.90;;;;;;6072296;23;20442;-78
2022/02/12 06:06:24;;;;;;;1740.90;295.00;;;-0.20;99.90;;;;;;6072010;23;20414;-79
2022/02/12 06:08:54;;;;;;;1136.53;113.77;;;-0.20;99.90;;;;;;6072126;23;20426;-78
2022/02/12 06:11:24;;;;;;;1137.23;179.03;;;-0.20;99.90;;;;;;6072136;23;20957;-78
2022/02/12 06:13:58;;;;;;;790.00;103.43;;;-0.20;99.90;;;;;;6072107;23;20439;-78
2022/02/12 06:33:06;;;;;;;497.63;83.43;;;-0.30;99.90;;;;;;5848853;24;20429;-79
2022/02/12 06:35:42;;;;;;;1145.87;115.00;;;-0.30;99.90;;;;;;5849118;24;20563;-79
2022/02/12 06:38:11;;;;;;;1814.83;302.43;;;-0.30;99.90;;;;;;5880736;24;20787;-79
2022/02/12 06:40:39;;;;;;;1545.47;188.77;;;-0.30;99.90;;;;;;5849943;24;20518;-78
2022/02/12 06:43:10;;;;;;;1243.63;233.40;;;-0.30;99.90;;;;;;5880417;24;20449;-79
2022/02/12 06:45:39;;;;;;;1012.90;123.73;;;-0.40;99.90;;;;;;5848861;24;20449;-79
2022/02/12 06:48:08;;;;;;;1635.77;252.10;;;-0.30;99.90;;;;;;5848416;24;20820;-79
2022/02/12 06:50:36;;;;;;;602.83;121.60;;;-0.30;99.90;;;;;;5899699;24;20451;-79
2022/02/12 06:53:06;;;;;;;1535.50;250.53;;;-0.30;99.90;;;;;;5974450;23;20457;-79
2022/02/12 06:55:37;;;;;;;1236.47;197.80;;;-0.30;99.90;;;;;;6071819;23;20434;-78
2022/02/12 06:58:06;;;;;;;1999.90;196.07;;;-0.30;99.90;;;;;;6072111;23;20497;-79
2022/02/12 07:00:38;;;;;;;1632.20;269.67;;;-0.30;99.90;;;;;;6107510;23;20551;-78
2022/02/12 07:03:09;;;;;;;1776.53;258.83;;;-0.30;99.90;;;;;;6098994;23;20402;-78
2022/02/12 07:05:37;;;;;;;1191.87;126.03;;;-0.30;99.90;;;;;;6107402;23;20409;-78
2022/02/12 07:08:07;;;;;;;1018.73;99.87;;;-0.30;99.90;;;;;;6072176;23;20422;-78
2022/02/12 07:10:37;;;;;;;903.27;97.17;;;-0.30;99.90;;;;;;6071863;23;20446;-79
2022/02/12 07:13:13;;;;;;;1455.00;235.50;;;-0.30;99.90;;;;;;6073666;23;20774;-79
2022/02/12 07:15:43;;;;;;;906.23;167.80;;;-0.30;99.90;;;;;;6071950;23;20826;-79
2022/02/12 07:18:15;;;;;;;874.33;100.17;;;-0.30;99.90;;;;;;6107305;23;20416;-77
2022/02/12 07:20:46;;;;;;;1175.37;106.27;;;-0.30;99.90;;;;;;6098185;23;20435;-78
2022/02/12 07:23:14;;;;;;;1090.47;120.27;;;-0.30;99.90;;;;;;6071590;23;20973;-78
2022/02/12 07:25:42;;;;;;;1999.90;307.43;;;-0.20;99.90;;;;;;6071893;23;20803;-78
2022/02/12 07:28:11;;;;;;;1567.97;278.07;;;-0.30;99.90;;;;;;6097237;23;20418;-78
2022/02/12 07:30:41;;;;;;;1502.40;238.13;;;-0.20;99.90;;;;;;6071398;23;20934;-78
2022/02/12 07:33:12;;;;;;;1999.90;464.93;;;-0.20;99.90;;;;;;6071798;23;20454;-78
2022/02/12 07:35:41;;;;;;;1072.23;120.47;;;-0.20;99.90;;;;;;6107114;23;20442;-78
2022/02/12 07:38:09;;;;;;;1999.90;317.27;;;-0.20;99.90;;;;;;6071712;23;20414;-78
2022/02/12 07:40:39;;;;;;;1127.07;111.83;;;-0.10;99.90;;;;;;6071432;23;20469;-78
2022/02/12 07:43:07;;;;;;;993.27;114.60;;;-0.10;99.90;;;;;;6071683;23;20418;-77
2022/02/12 07:45:38;;;;;;;1038.53;106.50;;;0.00;99.90;;;;;;6071538;23;20426;-77
2022/02/12 07:48:06;;;;;;;930.50;104.87;;;0.10;99.90;;;;;;6071637;23;20422;-77
2022/02/12 07:50:36;;;;;;;1999.90;489.10;;;0.10;99.90;;;;;;6071210;23;20446;-78
2022/02/12 07:53:04;;;;;;;1999.90;459.40;;;0.20;99.90;;;;;;6071441;23;20984;-77
2022/02/12 07:55:33;;;;;;;1362.03;171.60;;;0.20;99.90;;;;;;6071229;23;20473;-77
2022/02/12 07:58:01;;;;;;;1946.47;383.10;;;0.30;99.90;;;;;;6071768;23;20505;-77
2022/02/12 08:00:30;;;;;;;1836.30;416.70;;;0.30;99.90;;;;;;6071691;23;21051;-77
2022/02/12 08:03:07;;;;;;;1282.07;247.80;;;0.30;99.90;;;;;;6071346;23;20513;-78
2022/02/12 08:05:36;;;;;;;1534.70;187.33;;;0.40;99.90;;;;;;6097310;23;20469;-77
2022/02/12 08:08:07;;;;;;;993.30;148.87;;;0.50;99.90;;;;;;6073373;23;20422;-78
2022/02/12 08:13:22;;;;;;;1184.00;155.43;;;0.60;99.90;;;;;;6099126;23;20401;-77
2022/02/12 08:15:50;;;;;;;1629.27;209.07;;;0.60;99.90;;;;;;6072939;23;20517;-77
2022/02/12 08:18:18;;;;;;;1263.27;243.07;;;0.70;99.90;;;;;;6099089;23;20414;-77
2022/02/12 08:20:48;;;;;;;1196.77;176.17;;;0.70;99.90;;;;;;6073021;23;20441;-77
2022/02/12 08:23:17;;;;;;;1121.30;111.37;;;0.80;99.90;;;;;;6073178;23;20418;-78
2022/02/12 08:25:46;;;;;;;1999.90;329.10;;;0.90;99.90;;;;;;6073372;23;20417;-77
2022/02/12 08:28:14;;;;;;;1989.37;246.80;;;1.00;99.90;;;;;;6073515;23;20421;-81
2022/02/12 08:30:42;;;;;;;1347.53;214.07;;;1.00;99.90;;;;;;6108600;23;20446;-79
2022/02/12 08:33:13;;;;;;;1169.03;190.20;;;1.00;99.90;;;;;;6109495;23;20941;-78
2022/02/12 08:35:56;;;;;;;1135.83;194.60;;;1.00;99.90;;;;;;6075078;23;20452;-79
2022/02/12 08:38:24;;;;;;;1549.83;212.30;;;1.10;99.90;;;;;;6075912;23;20500;-79
2022/02/12 08:40:53;;;;;;;1874.73;257.80;;;1.00;99.90;;;;;;6075157;23;20480;-79
2022/02/12 08:43:21;;;;;;;1971.17;277.53;;;1.00;99.90;;;;;;6077531;23;20826;-79
2022/02/12 08:45:49;;;;;;;1899.07;133.10;;;1.10;99.90;;;;;;6073359;23;20812;-78
2022/02/12 08:48:19;;;;;;;1999.90;241.77;;;1.10;99.90;;;;;;6074444;23;20418;-79
2022/02/12 08:50:48;;;;;;;1480.00;137.63;;;1.10;99.90;;;;;;6075194;23;20442;-78
2022/02/12 08:53:17;;;;;;;1915.57;333.57;;;1.10;99.90;;;;;;6075276;23;20418;-78
2022/02/12 08:55:46;;;;;;;1807.17;259.00;;;1.20;99.90;;;;;;6074565;23;20466;-78
2022/02/12 08:58:15;;;;;;;1356.67;234.37;;;1.20;99.90;;;;;;6074302;23;20478;-79
2022/02/12 09:00:43;;;;;;;1999.90;239.00;;;1.20;99.90;;;;;;6077420;23;20832;-79
2022/02/12 09:03:13;;;;;;;1958.70;295.30;;;1.30;99.90;;;;;;6076052;23;20427;-78
2022/02/12 09:05:42;;;;;;;1994.50;304.33;;;1.30;99.90;;;;;;6073677;23;20452;-78
2022/02/12 09:08:11;;;;;;;1543.03;226.30;;;1.40;99.90;;;;;;6074298;23;20419;-78
2022/02/12 09:10:41;;;;;;;1865.30;234.40;;;1.40;99.90;;;;;;6074272;23;20437;-78
2022/02/12 09:13:10;;;;;;;1676.70;267.40;;;1.40;99.90;;;;;;6110248;23;20387;-79
2022/02/12 09:15:39;;;;;;;1999.90;999.90;;;1.50;99.90;;;;;;6075388;23;20513;-79
2022/02/12 09:18:09;;;;;;;1308.63;183.57;;;1.50;99.90;;;;;;6108273;23;20417;-78
2022/02/12 09:20:38;;;;;;;1265.77;120.17;;;1.60;99.90;;;;;;6072857;23;20441;-78
2022/02/12 09:23:09;;;;;;;1999.90;999.90;;;1.70;99.90;;;;;;6072742;23;20514;-77
2022/02/12 09:25:37;;;;;;;1484.47;206.63;;;1.70;99.90;;;;;;6072762;23;20409;-77
2022/02/12 09:28:07;;;;;;;960.93;90.60;;;1.80;99.90;;;;;;6072377;23;20414;-78
2022/02/12 09:30:36;;;;;;;719.97;76.50;;;1.90;99.90;;;;;;6072437;23;20495;-78
2022/02/12 09:33:04;;;;;;;1232.23;107.43;;;1.90;99.90;;;;;;6072478;23;20753;-78
2022/02/12 09:35:53;;;;;;;1264.83;179.63;;;2.00;99.90;;;;;;6072418;23;20431;-78
2022/02/12 09:38:21;;;;;;;426.07;50.23;;;2.10;99.90;;;;;;6098427;23;20400;-78
2022/02/12 09:40:50;;;;;;;1999.90;999.90;;;2.20;99.90;;;;;;6072632;23;20473;-78
2022/02/12 09:43:24;;;;;;;1185.73;102.43;;;2.20;99.90;;;;;;6072543;23;20447;-78
2022/02/12 09:46:05;;;;;;;1108.70;92.77;;;2.30;99.90;;;;;;6098470;23;20395;-78
2022/02/12 09:48:35;;;;;;;1309.47;379.63;;;2.40;99.90;;;;;;6072716;23;20479;-78
2022/02/12 09:51:05;;;;;;;1344.77;94.73;;;2.40;99.90;;;;;;6072468;23;20507;-78
2022/02/12 09:53:34;;;;;;;1225.47;75.73;;;2.50;99.90;;;;;;6107908;23;20395;-78
2022/02/12 09:56:02;;;;;;;1999.90;999.90;;;2.50;99.90;;;;;;6099147;23;20521;-78
2022/02/12 09:58:32;;;;;;;1999.90;999.90;;;2.60;99.90;;;;;;6073295;23;20449;-78
2022/02/12 10:01:00;;;;;;;1999.90;999.90;;;2.70;99.90;;;;;;6109239;23;20744;-78
2022/02/12 10:03:29;;;;;;;1999.90;999.90;;;2.80;99.90;;;;;;6074071;23;20442;-78
2022/02/12 10:05:57;;;;;;;1999.90;999.90;;;2.80;99.90;;;;;;6073772;23;20474;-78
2022/02/12 10:08:31;;;;;;;1999.90;999.90;;;2.90;99.90;;;;;;6099807;23;20398;-79
2022/02/12 10:11:11;;;;;;;1999.90;999.90;;;2.90;99.90;;;;;;6074377;23;20443;-79
2022/02/12 10:13:41;;;;;;;1999.90;999.90;;;2.90;99.90;;;;;;6074976;23;20403;-79
2022/02/12 10:16:10;;;;;;;1999.90;641.57;;;3.00;99.90;;;;;;6074924;23;20484;-78
2022/02/12 10:18:39;;;;;;;1999.90;354.77;;;3.10;99.90;;;;;;6075420;23;20512;-79
2022/02/12 10:21:08;;;;;;;1999.90;470.03;;;3.20;99.90;;;;;;6074850;23;20443;-79
2022/02/12 10:23:42;;;;;;;1999.90;999.90;;;3.20;99.90;;;;;;6075872;23;20434;-79
2022/02/12 10:26:13;;;;;;;1999.90;209.67;;;3.30;99.90;;;;;;6075906;23;20466;-78
2022/02/12 10:28:46;;;;;;;1999.90;780.87;;;3.30;99.90;;;;;;6110945;23;20383;-79
2022/02/12 10:31:15;;;;;;;1999.90;364.10;;;3.40;99.90;;;;;;6076891;23;20932;-79
2022/02/12 10:33:45;;;;;;;1999.90;396.00;;;3.50;99.90;;;;;;6076116;23;20432;-79
2022/02/12 10:36:16;;;;;;;1999.90;448.67;;;3.50;99.90;;;;;;6101640;23;20531;-79
2022/02/12 10:48:17;;;;;;;1999.90;535.10;;;3.80;99.90;;;;;;6101118;23;20436;-79
2022/02/12 10:50:48;;;;;;;1999.90;567.37;;;3.90;99.90;;;;;;6103078;23;20441;-79
2022/02/12 10:53:22;;;;;;;1999.90;537.93;;;3.90;99.90;;;;;;6077053;23;20478;-79
2022/02/12 10:55:58;;;;;;;1999.90;533.27;;;4.00;99.90;;;;;;6111918;23;20423;-79
2022/02/12 10:58:27;;;;;;;1999.90;544.77;;;4.00;99.90;;;;;;6076796;23;20480;-80
2022/02/12 11:00:57;;;;;;;1999.90;495.10;;;4.10;99.90;;;;;;6077957;23;20782;-79
2022/02/12 11:03:26;;;;;;;1999.90;486.97;;;4.20;99.90;;;;;;6077014;23;20417;-79
2022/02/12 11:05:56;;;;;;;1999.90;529.33;;;4.20;99.90;;;;;;6076090;23;20423;-79
2022/02/12 11:08:25;;;;;;;1999.90;475.23;;;4.20;99.90;;;;;;6074970;23;20489;-79
2022/02/12 11:10:54;;;;;;;1999.90;346.20;;;4.30;99.90;;;;;;6075480;23;21008;-79
2022/02/12 11:13:23;;;;;;;1999.90;403.10;;;4.30;99.90;;;;;;6111624;23;20398;-79
2022/02/12 11:15:53;;;;;;;1999.90;335.10;;;4.30;99.90;;;;;;6103733;23;20461;-79
2022/02/12 11:18:24;;;;;;;1999.90;389.17;;;4.40;99.90;;;;;;6077525;23;20539;-79
2022/02/12 11:20:55;;;;;;;1999.90;489.10;;;4.40;99.90;;;;;;6077461;23;20545;-79
2022/02/12 11:23:30;;;;;;;1999.90;473.53;;;4.50;99.90;;;;;;6077227;23;20432;-79
2022/02/12 11:26:20;;;;;;;1999.90;386.90;;;4.50;99.90;;;;;;6078051;23;20423;-80
2022/02/12 11:28:49;;;;;;;1947.33;364.40;;;4.50;99.90;;;;;;6077641;23;20414;-79
2022/02/12 11:31:20;;;;;;;1999.90;537.83;;;4.60;99.90;;;;;;6115255;23;20426;-79
2022/02/12 11:34:13;;;;;;;1999.90;533.97;;;4.60;99.90;;;;;;6085710;23;20410;-80
2022/02/12 11:37:13;;;;;;;1999.90;386.77;;;4.70;99.90;;;;;;6085474;23;20438;-79
2022/02/12 11:39:41;;;;;;;1999.90;484.80;;;4.70;99.90;;;;;;6111808;23;20426;-80
2022/02/12 11:42:13;;;;;;;1999.90;523.10;;;4.70;99.90;;;;;;6087811;23;20422;-80
2022/02/12 11:44:43;;;;;;;1999.90;462.40;;;4.80;99.90;;;;;;6087927;23;20468;-80
2022/02/12 11:47:14;;;;;;;1999.90;257.93;;;4.80;99.90;;;;;;6086411;23;20486;-79
2022/02/12 11:49:44;;;;;;;1999.90;283.17;;;4.80;99.90;;;;;;6078904;23;20437;-79
2022/02/12 11:52:46;;;;;;;1999.90;535.33;;;4.90;99.90;;;;;;6081531;23;20421;-80
2022/02/12 11:55:33;;;;;;;1280.10;110.40;;;4.90;99.90;;;;;;6109440;23;20469;-80
2022/02/12 11:58:01;;;;;;;1480.10;196.70;;;5.00;99.90;;;;;;6120294;23;20419;-80
2022/02/12 12:00:40;;;;;;;1999.90;431.63;;;5.00;99.90;;;;;;6084158;23;20502;-79
2022/02/12 12:03:28;;;;;;;1979.97;180.57;;;5.00;99.90;;;;;;6085876;23;20416;-80
2022/02/12 12:06:23;;;;;;;1257.43;99.33;;;5.00;99.90;;;;;;6112141;23;20409;-80
2022/02/12 12:09:04;;;;;;;668.17;85.67;;;5.10;99.90;;;;;;6088490;23;20496;-80
2022/02/12 12:18:47;;;;;;;932.10;124.90;;;5.20;99.90;;;;;;6123581;23;20410;-81
2022/02/12 12:21:19;;;;;;;486.57;67.50;;;5.20;99.90;;;;;;6087198;23;20444;-79
2022/02/12 12:24:01;;;;;;;1412.43;121.13;;;5.20;99.90;;;;;;6113234;23;20413;-81
2022/02/12 12:26:45;;;;;;;637.73;104.63;;;5.30;99.90;;;;;;6088293;23;20426;-80
2022/02/12 12:32:09;;;;;;;439.33;42.60;;;5.40;99.90;;;;;;6089042;23;20481;-80
2022/02/12 12:34:48;;;;;;;560.73;55.77;;;5.40;99.90;;;;;;6089267;23;20444;-80
2022/02/12 12:37:17;;;;;;;762.07;76.20;;;5.40;99.90;;;;;;6088842;23;20442;-80
2022/02/12 12:39:46;;;;;;;1483.60;688.03;;;5.40;99.90;;;;;;6113112;23;20430;-80
2022/02/12 12:42:18;;;;;;;1999.90;999.90;;;5.50;99.90;;;;;;6086674;23;20419;-80
2022/02/12 12:44:59;;;;;;;1474.60;677.73;;;5.50;99.90;;;;;;6086209;23;20425;-80
2022/02/12 12:47:31;;;;;;;316.43;27.63;;;5.50;99.90;;;;;;6086983;23;20421;-80
2022/02/12 12:50:01;;;;;;;1449.07;673.60;;;5.60;99.90;;;;;;6086735;23;20461;-81
2022/02/12 12:52:31;;;;;;;1999.90;999.90;;;5.60;99.90;;;;;;6086526;23;21015;-80
2022/02/12 12:55:09;;;;;;;1999.90;999.90;;;5.60;99.90;;;;;;6087995;23;20722;-80
2022/02/12 12:57:41;;;;;;;1999.90;999.90;;;5.60;99.90;;;;;;6088945;23;20440;-80
2022/02/12 13:00:11;;;;;;;1999.90;999.90;;;5.70;99.90;;;;;;6087626;23;20446;-80
2022/02/12 13:02:50;;;;;;;329.00;29.20;;;5.70;99.90;;;;;;6085166;23;20438;-79
2022/02/12 13:05:32;;;;;;;1655.83;685.53;;;5.70;99.90;;;;;;6106143;23;20400;-79
2022/02/12 13:08:03;;;;;;;1999.90;999.90;;;5.70;99.90;;;;;;6080274;23;20414;-79
2022/02/12 13:10:34;;;;;;;1999.90;999.90;;;5.80;99.90;;;;;;6079340;23;20469;-79
2022/02/12 13:13:21;;;;;;;1999.90;999.90;;;5.80;99.90;;;;;;6079461;23;20421;-78